METAR Data
IDs: Format: Raw Decoded Include TAF

Data at: 1244 UTC 18 Nov 2018

METAR for:KHLX (Hillsville/Twin Cnty, VA, US)
Text:KHLX 181235Z AUTO 21003KT 10SM CLR 03/01 A3025 RMK AO2 T00260011
Temperature: 2.6°C ( 37°F)
Dewpoint: 1.1°C ( 34°F) [RH = 90%]
Pressure (altimeter):30.25 inches Hg (1024.5 mb)
Winds:from the SSW (210 degrees) at 3 MPH (3 knots; 1.5 m/s)
Visibility:10 or more sm (16+ km)
Ceiling:at least 12,000 feet AGL
Clouds:sky clear below 12,000 feet AGL
QC Flag:automated observation with no human augmentation